Gold Hill, Illinois
Current Conditions -  °F | °C
As of 2:35 PM on Monday 26 Jan 2015 (Local Time) from KHSB Reporting Station
Overcast Overcast  
Wind Chill: 26°   Ceiling: 2700
Heat Index: 32°   Visibility: 10mi
Dew Point: 27°   Wind: 6mph
Humidity: 82%   Direction: 270°W
Pressure: 29.99"   Gusts: NA
Location:  37.7051°N, 88.1623°W
Report Text: KHSB 262035Z AUTO 27005KT 10SM BKN027 BKN041 OVC050 00/M03 A2999 RMK AO2 T00001027
Loading
Personal Weather Stations






























Interactive Weather Map New forecast layout! Learn more

10-Day Weather Forecast

Advertisements
Track Severe Weather on mobile